Time;durP1;ratioP1;P1;durP2;ratioP2;P2;SDS_P1;SDS_P2;PMS_P1;PMS_P2;Temp;Humidity;BMP_temperature;BMP_pressure;BME280_temperature;BME280_humidity;BME280_pressure;Samples;Min_cycle;Max_cycle;Signal;HPM_P1;HPM_P2
2021/09/14 00:02:17;;;;;;;11.00;6.82;;;20.20;98.10;;;;;;5054805;28;20479;-73
2021/09/14 00:04:43;;;;;;;11.15;6.45;;;20.20;98.00;;;;;;5054496;28;20036;-73
2021/09/14 00:07:09;;;;;;;10.15;6.80;;;20.20;98.10;;;;;;5054668;28;20029;-74
2021/09/14 00:09:34;;;;;;;8.90;6.32;;;20.30;97.80;;;;;;5054327;28;20430;-72
2021/09/14 00:12:01;;;;;;;8.95;6.50;;;20.40;97.80;;;;;;5054298;28;20479;-73
2021/09/14 00:14:27;;;;;;;13.00;7.15;;;20.40;97.30;;;;;;5054242;28;20097;-74
2021/09/14 00:16:53;;;;;;;9.07;6.10;;;20.40;97.50;;;;;;5054276;28;20029;-74
2021/09/14 00:19:19;;;;;;;9.63;6.22;;;20.40;97.30;;;;;;5054143;28;20399;-71
2021/09/14 00:21:44;;;;;;;10.35;6.57;;;20.50;97.10;;;;;;5054131;28;20513;-71
2021/09/14 00:24:10;;;;;;;9.40;6.05;;;20.60;96.80;;;;;;5054083;28;20033;-71
2021/09/14 00:26:36;;;;;;;9.38;5.93;;;20.60;96.80;;;;;;5054301;28;20025;-72
2021/09/14 00:29:01;;;;;;;10.35;5.60;;;20.60;96.80;;;;;;5054291;28;20025;-74
2021/09/14 00:31:28;;;;;;;9.77;6.00;;;20.70;96.70;;;;;;5053877;28;20074;-74
2021/09/14 00:33:54;;;;;;;10.20;5.68;;;20.80;96.60;;;;;;5054467;28;20017;-72
2021/09/14 00:36:20;;;;;;;9.80;5.82;;;20.80;96.60;;;;;;5053867;28;20021;-72
2021/09/14 00:38:46;;;;;;;8.45;5.70;;;20.80;96.50;;;;;;5054078;28;20028;-75
2021/09/14 00:41:11;;;;;;;14.10;7.10;;;20.70;96.40;;;;;;5053975;28;20044;-73
2021/09/14 00:43:37;;;;;;;11.20;7.10;;;20.70;96.70;;;;;;5053729;28;20033;-72
2021/09/14 00:46:04;;;;;;;12.60;6.68;;;20.70;96.90;;;;;;5053732;28;20028;-73
2021/09/14 00:48:29;;;;;;;10.45;6.63;;;20.60;97.10;;;;;;5054218;28;20025;-73
2021/09/14 00:50:55;;;;;;;9.52;6.50;;;20.70;96.90;;;;;;5053856;28;20035;-72
2021/09/14 00:53:25;;;;;;;9.63;6.38;;;20.70;97.10;;;;;;5053558;28;20025;-72
2021/09/14 00:55:52;;;;;;;9.07;6.25;;;20.70;96.90;;;;;;5053883;28;20025;-73
2021/09/14 00:58:17;;;;;;;10.38;6.57;;;20.70;97.10;;;;;;5053432;28;20100;-73
2021/09/14 01:00:43;;;;;;;7.40;5.50;;;20.70;96.90;;;;;;5053476;28;20024;-73
2021/09/14 01:03:09;;;;;;;8.32;6.15;;;20.70;96.50;;;;;;5053936;28;20029;-71
2021/09/14 01:05:35;;;;;;;11.20;6.47;;;20.60;96.50;;;;;;5053628;28;20025;-72
2021/09/14 01:08:01;;;;;;;8.50;5.80;;;20.70;96.90;;;;;;5053370;28;20094;-72
2021/09/14 01:10:29;;;;;;;9.60;6.55;;;20.70;96.70;;;;;;5053251;28;20511;-73
2021/09/14 01:12:54;;;;;;;12.32;6.13;;;20.60;96.40;;;;;;5053244;28;20017;-73
2021/09/14 01:15:21;;;;;;;10.80;6.65;;;20.60;96.60;;;;;;5053200;28;20048;-73
2021/09/14 01:17:46;;;;;;;10.60;7.05;;;20.60;96.30;;;;;;5053192;28;20033;-74
2021/09/14 01:20:12;;;;;;;6.97;5.32;;;20.50;96.80;;;;;;5053136;28;20027;-72
2021/09/14 01:22:38;;;;;;;8.98;6.22;;;20.40;96.60;;;;;;5053402;28;20541;-73
2021/09/14 01:25:21;;;;;;;8.63;5.93;;;20.40;96.80;;;;;;5053119;28;20021;-73
2021/09/14 01:27:48;;;;;;;7.40;5.53;;;20.50;96.60;;;;;;5053149;28;20029;-73
2021/09/14 01:30:20;;;;;;;9.65;6.40;;;20.50;96.90;;;;;;5053028;28;20025;-73
2021/09/14 01:32:51;;;;;;;9.43;6.15;;;20.40;96.50;;;;;;5053081;28;20021;-71
2021/09/14 01:35:23;;;;;;;11.10;7.00;;;20.30;96.90;;;;;;5052559;28;20413;-72
2021/09/14 01:37:49;;;;;;;10.57;6.90;;;20.10;97.20;;;;;;5053101;28;20032;-72
2021/09/14 01:40:16;;;;;;;10.60;6.22;;;20.30;97.20;;;;;;5052969;28;20633;-72
2021/09/14 01:42:42;;;;;;;10.23;6.88;;;20.30;97.10;;;;;;5055730;28;20029;-71
2021/09/14 01:45:09;;;;;;;14.40;7.05;;;20.30;97.20;;;;;;5057120;28;20029;-74
2021/09/14 01:47:36;;;;;;;10.38;6.93;;;20.20;97.20;;;;;;5057617;28;20029;-71
2021/09/14 01:50:07;;;;;;;9.98;6.53;;;20.30;97.10;;;;;;5057225;28;20032;-73
2021/09/14 01:52:33;;;;;;;10.68;7.15;;;20.20;97.10;;;;;;5057182;28;20467;-73
2021/09/14 01:55:04;;;;;;;12.25;6.35;;;20.20;97.40;;;;;;5056939;28;20024;-72
2021/09/14 01:57:33;;;;;;;;;;;20.20;97.40;;;;;;5057258;28;20025;-74
2021/09/14 02:00:01;;;;;;;10.90;7.00;;;20.30;97.30;;;;;;5056728;28;19904;-71
2021/09/14 02:05:10;;;;;;;8.68;6.47;;;20.30;97.50;;;;;;5057034;28;20104;-72
2021/09/14 02:59:06;;;;;;;10.05;7.10;;;19.80;99.20;;;;;;5055899;28;20063;-74
2021/09/14 03:01:32;;;;;;;12.57;7.13;;;19.80;99.30;;;;;;5055646;28;20048;-74
2021/09/14 03:03:58;;;;;;;10.77;8.05;;;19.70;99.30;;;;;;5055609;28;20048;-72
2021/09/14 03:06:24;;;;;;;10.88;7.22;;;19.70;99.60;;;;;;5055596;28;20541;-74
2021/09/14 03:08:50;;;;;;;10.35;7.07;;;19.40;99.90;;;;;;5055194;28;20064;-74
2021/09/14 03:11:18;;;;;;;11.48;7.57;;;19.50;99.90;;;;;;5055458;28;20095;-72
2021/09/14 03:13:44;;;;;;;10.05;7.57;;;19.60;99.90;;;;;;5055488;28;20070;-74
2021/09/14 03:16:12;;;;;;;11.90;7.40;;;19.80;99.90;;;;;;5055352;28;20106;-71
2021/09/14 03:18:39;;;;;;;9.57;6.88;;;19.80;99.60;;;;;;5055927;28;20021;-72
2021/09/14 03:21:07;;;;;;;9.70;6.65;;;19.90;99.40;;;;;;5055674;28;20071;-73
2021/09/14 03:23:34;;;;;;;12.82;7.93;;;20.00;99.30;;;;;;5055547;28;20025;-71
2021/09/14 03:26:00;;;;;;;9.88;6.70;;;20.00;99.20;;;;;;5055540;28;20032;-72
2021/09/14 03:28:26;;;;;;;13.25;7.30;;;19.90;99.40;;;;;;5055486;28;20033;-72
2021/09/14 03:30:52;;;;;;;11.13;7.00;;;19.90;99.20;;;;;;5055074;28;20021;-74
2021/09/14 03:33:18;;;;;;;11.23;7.13;;;19.90;99.30;;;;;;5055115;28;20023;-73
2021/09/14 03:35:43;;;;;;;13.80;7.45;;;20.00;99.50;;;;;;5053776;28;20037;-72
2021/09/14 03:38:09;;;;;;;11.90;7.85;;;20.00;99.40;;;;;;5055297;28;20013;-72
2021/09/14 03:40:36;;;;;;;10.85;7.25;;;20.00;99.40;;;;;;5054963;28;20036;-72
2021/09/14 03:43:02;;;;;;;10.25;7.40;;;20.00;99.40;;;;;;5054918;28;20433;-72
2021/09/14 03:45:27;;;;;;;12.25;7.90;;;20.10;99.10;;;;;;5054866;28;20159;-73
2021/09/14 03:47:53;;;;;;;12.32;7.82;;;20.00;99.20;;;;;;5055349;28;20047;-72
2021/09/14 03:50:19;;;;;;;15.40;8.60;;;20.10;99.10;;;;;;5054693;28;20029;-72
2021/09/14 03:52:44;;;;;;;10.98;7.65;;;19.90;99.90;;;;;;5054750;28;20025;-74
2021/09/14 03:55:11;;;;;;;11.32;7.47;;;19.90;99.90;;;;;;5054959;28;20040;-72
2021/09/14 03:57:37;;;;;;;10.52;7.93;;;19.90;99.80;;;;;;5054644;28;20437;-73
2021/09/14 04:00:04;;;;;;;11.18;6.80;;;19.90;99.90;;;;;;5054521;28;20037;-73
2021/09/14 04:09:51;;;;;;;14.15;8.85;;;19.90;99.90;;;;;;5054522;28;20037;-74
2021/09/14 04:12:17;;;;;;;12.00;8.20;;;19.80;99.90;;;;;;5053808;28;20028;-73
2021/09/14 04:14:43;;;;;;;12.98;8.00;;;19.80;99.90;;;;;;5053950;28;20100;-74
2021/09/14 04:17:10;;;;;;;10.02;7.00;;;19.80;99.90;;;;;;5054218;28;20021;-73
2021/09/14 04:19:36;;;;;;;12.55;8.40;;;19.80;99.90;;;;;;5054184;28;20064;-72
2021/09/14 04:22:02;;;;;;;13.45;8.50;;;19.90;99.90;;;;;;5054130;28;20498;-72
2021/09/14 04:24:27;;;;;;;9.63;7.55;;;19.90;99.90;;;;;;5054119;28;20052;-73
2021/09/14 04:26:53;;;;;;;10.35;7.70;;;19.90;99.90;;;;;;5054290;28;20090;-75
2021/09/14 04:29:19;;;;;;;10.32;7.97;;;19.90;99.90;;;;;;5054200;28;20183;-72
2021/09/14 04:31:44;;;;;;;12.55;7.75;;;19.90;99.90;;;;;;5054215;28;20017;-73
2021/09/14 04:34:10;;;;;;;10.13;7.43;;;19.80;99.90;;;;;;5053904;28;20029;-73
2021/09/14 04:36:35;;;;;;;11.13;7.70;;;19.80;99.90;;;;;;5054159;28;20383;-71
2021/09/14 04:39:01;;;;;;;11.38;7.38;;;19.70;99.90;;;;;;5053841;28;20095;-72
2021/09/14 04:41:27;;;;;;;9.98;7.43;;;19.70;99.90;;;;;;5053813;28;20479;-72
2021/09/14 04:43:52;;;;;;;13.25;8.65;;;19.60;99.90;;;;;;5053714;28;20021;-74
2021/09/14 04:46:18;;;;;;;12.27;8.63;;;19.60;99.90;;;;;;5054252;28;20032;-72
2021/09/14 04:48:43;;;;;;;11.65;8.10;;;19.60;99.90;;;;;;5053918;28;20040;-75
2021/09/14 04:51:09;;;;;;;13.25;8.75;;;19.60;99.90;;;;;;5053785;28;20387;-72
2021/09/14 04:53:35;;;;;;;10.93;8.70;;;19.60;99.90;;;;;;5053830;28;20029;-73
2021/09/14 04:56:00;;;;;;;12.95;8.68;;;19.50;99.90;;;;;;5053807;28;20024;-72
2021/09/14 04:58:26;;;;;;;11.05;8.57;;;19.50;99.90;;;;;;5053800;28;20025;-73
2021/09/14 05:00:52;;;;;;;15.15;9.13;;;19.60;99.90;;;;;;5053458;28;20025;-72
2021/09/14 05:03:17;;;;;;;19.85;9.18;;;19.60;99.90;;;;;;5053451;28;20395;-74
2021/09/14 05:05:43;;;;;;;11.93;8.95;;;19.70;99.90;;;;;;5053411;28;20017;-71
2021/09/14 05:08:09;;;;;;;10.45;8.57;;;19.70;99.90;;;;;;5053289;28;20049;-71
2021/09/14 05:10:34;;;;;;;12.75;7.38;;;19.70;99.90;;;;;;5053583;28;20029;-74
2021/09/14 05:13:01;;;;;;;12.35;8.10;;;19.70;99.90;;;;;;5052043;28;20479;-72
2021/09/14 05:15:27;;;;;;;12.45;8.48;;;19.80;99.90;;;;;;5053070;28;20099;-72
2021/09/14 05:17:52;;;;;;;14.85;8.98;;;19.90;99.90;;;;;;5053170;28;20049;-71
2021/09/14 05:20:18;;;;;;;11.68;8.80;;;19.70;99.90;;;;;;5053167;28;20028;-74
2021/09/14 05:22:46;;;;;;;13.52;9.80;;;19.70;99.90;;;;;;5053173;28;20483;-73
2021/09/14 05:25:11;;;;;;;11.88;9.07;;;19.60;99.90;;;;;;5053400;28;20379;-71
2021/09/14 05:27:37;;;;;;;10.07;7.65;;;19.70;99.90;;;;;;5053087;28;20104;-72
2021/09/14 05:30:04;;;;;;;11.45;9.13;;;19.70;99.90;;;;;;5052985;28;20031;-73
2021/09/14 05:32:30;;;;;;;14.85;9.85;;;19.80;99.90;;;;;;5053316;28;20017;-73
2021/09/14 05:34:55;;;;;;;13.35;8.50;;;19.70;99.90;;;;;;5053592;28;20022;-74
2021/09/14 05:37:21;;;;;;;11.80;8.30;;;19.70;99.90;;;;;;5053551;28;20032;-72
2021/09/14 05:39:47;;;;;;;15.48;8.82;;;19.70;99.90;;;;;;5053030;28;20052;-74
2021/09/14 05:42:13;;;;;;;14.55;8.52;;;19.70;99.90;;;;;;5053258;28;20025;-73
2021/09/14 05:44:39;;;;;;;12.32;8.45;;;19.70;99.90;;;;;;5053191;28;20036;-73
2021/09/14 05:47:05;;;;;;;11.80;8.27;;;19.70;99.90;;;;;;5052902;28;20499;-74
2021/09/14 05:49:31;;;;;;;9.80;7.78;;;19.80;99.90;;;;;;5052873;28;20064;-75
2021/09/14 05:51:58;;;;;;;10.88;8.55;;;19.80;99.90;;;;;;5052895;28;20025;-71
2021/09/14 05:54:24;;;;;;;16.52;9.10;;;19.80;99.90;;;;;;5052869;28;20066;-71
2021/09/14 05:56:49;;;;;;;11.70;9.25;;;19.80;99.90;;;;;;5051551;28;20025;-71
2021/09/14 05:59:15;;;;;;;13.57;10.13;;;19.70;99.90;;;;;;5053018;28;20096;-72
2021/09/14 06:01:41;;;;;;;13.85;8.43;;;19.70;99.90;;;;;;5052737;28;20029;-73
2021/09/14 06:04:06;;;;;;;14.25;8.65;;;19.70;99.90;;;;;;5052749;28;20018;-72
2021/09/14 06:06:32;;;;;;;12.43;9.80;;;19.70;99.90;;;;;;5052751;28;20214;-72
2021/09/14 06:08:57;;;;;;;12.00;9.48;;;19.70;99.90;;;;;;5052276;28;20068;-74
2021/09/14 06:11:23;;;;;;;12.02;9.27;;;19.60;99.90;;;;;;5052612;28;20037;-73
2021/09/14 06:13:49;;;;;;;9.43;7.60;;;19.60;99.90;;;;;;5052687;28;20018;-72
2021/09/14 06:16:14;;;;;;;13.75;9.98;;;19.70;99.90;;;;;;5052708;28;20029;-74
2021/09/14 06:18:40;;;;;;;12.13;9.25;;;19.70;99.90;;;;;;5052885;28;20434;-72
2021/09/14 06:21:06;;;;;;;12.98;8.35;;;19.60;99.90;;;;;;5052587;28;20033;-72
2021/09/14 06:23:31;;;;;;;15.30;10.98;;;19.60;99.90;;;;;;5052585;28;20017;-71
2021/09/14 06:25:57;;;;;;;14.80;10.30;;;19.60;99.90;;;;;;5052816;28;20032;-74
2021/09/14 06:28:23;;;;;;;11.98;9.43;;;19.60;99.90;;;;;;5054491;28;20395;-72
2021/09/14 06:30:48;;;;;;;13.10;9.80;;;19.70;99.90;;;;;;5056484;28;20025;-71
2021/09/14 06:33:14;;;;;;;10.93;9.38;;;19.70;99.90;;;;;;5056210;28;20096;-72
2021/09/14 06:35:40;;;;;;;13.80;9.75;;;19.70;99.90;;;;;;5056448;28;20028;-73
2021/09/14 06:38:06;;;;;;;16.50;9.70;;;19.70;99.90;;;;;;5056427;28;20032;-72
2021/09/14 06:40:32;;;;;;;13.23;10.20;;;19.50;99.90;;;;;;5056374;28;20387;-74
2021/09/14 06:42:58;;;;;;;12.38;9.20;;;19.50;99.90;;;;;;5056016;28;20502;-75
2021/09/14 06:45:24;;;;;;;14.63;10.18;;;19.40;99.90;;;;;;5055994;28;20040;-73
2021/09/14 06:47:50;;;;;;;13.05;9.77;;;19.50;99.90;;;;;;5055957;28;20025;-73
2021/09/14 06:50:21;;;;;;;11.65;9.18;;;19.50;99.90;;;;;;5056082;28;20112;-73
2021/09/14 06:52:48;;;;;;;14.32;10.18;;;19.60;99.90;;;;;;5056440;28;20025;-72
2021/09/14 06:55:14;;;;;;;11.93;9.30;;;19.70;99.90;;;;;;5055823;28;20040;-73
2021/09/14 06:57:40;;;;;;;14.32;8.27;;;19.80;99.90;;;;;;5055773;28;20083;-73
2021/09/14 07:00:06;;;;;;;12.50;8.23;;;19.90;99.90;;;;;;5055650;28;20029;-73
2021/09/14 07:02:32;;;;;;;12.55;8.20;;;20.00;99.90;;;;;;5055686;28;20017;-70
2021/09/14 07:04:58;;;;;;;11.02;8.43;;;20.10;99.90;;;;;;5055618;28;20116;-74
2021/09/14 07:07:23;;;;;;;13.88;9.50;;;20.10;99.90;;;;;;5055377;28;20052;-72
2021/09/14 07:09:49;;;;;;;11.75;8.60;;;20.00;99.90;;;;;;5056348;28;20033;-75
2021/09/14 07:12:15;;;;;;;10.18;7.95;;;20.00;99.90;;;;;;5057080;28;20043;-82
2021/09/14 07:14:40;;;;;;;13.15;9.43;;;20.10;99.90;;;;;;5074038;28;20025;-74
2021/09/14 07:17:06;;;;;;;12.93;8.52;;;20.10;99.90;;;;;;5074841;28;20506;-75
2021/09/14 07:19:32;;;;;;;13.07;9.18;;;20.00;99.90;;;;;;5071141;28;20020;-73
2021/09/14 07:21:57;;;;;;;11.95;9.18;;;20.10;99.90;;;;;;5062122;28;20025;-76
2021/09/14 07:24:23;;;;;;;13.45;9.02;;;20.20;99.90;;;;;;5054858;28;20029;-82
2021/09/14 07:26:49;;;;;;;11.40;8.82;;;20.20;99.90;;;;;;5055264;28;20028;-75
2021/09/14 07:29:15;;;;;;;13.68;8.75;;;20.20;99.90;;;;;;5065067;28;20039;-74
2021/09/14 07:31:41;;;;;;;14.48;10.13;;;20.20;99.90;;;;;;5056906;28;20070;-84
2021/09/14 07:34:07;;;;;;;13.75;9.02;;;20.20;99.90;;;;;;5067923;28;20027;-83
2021/09/14 07:36:33;;;;;;;13.23;9.50;;;20.20;99.90;;;;;;5055108;28;20017;-83
2021/09/14 07:38:59;;;;;;;18.25;11.13;;;20.30;99.90;;;;;;5054223;28;20025;-80
2021/09/14 07:41:24;;;;;;;13.15;9.45;;;20.30;99.90;;;;;;5054745;28;20096;-81
2021/09/14 07:43:50;;;;;;;12.10;9.70;;;20.40;99.90;;;;;;5054889;28;20083;-74
2021/09/14 07:46:15;;;;;;;14.93;10.48;;;20.40;99.90;;;;;;5062951;28;20028;-74
2021/09/14 07:48:41;;;;;;;15.15;10.60;;;20.30;99.90;;;;;;5074831;28;20028;-74
2021/09/14 07:51:07;;;;;;;13.10;8.80;;;20.30;99.90;;;;;;5074701;28;20031;-76
2021/09/14 07:53:32;;;;;;;15.95;9.48;;;20.30;99.90;;;;;;5075198;28;20031;-75
2021/09/14 07:55:58;;;;;;;14.68;9.25;;;20.30;99.90;;;;;;5074643;28;20386;-74
2021/09/14 07:58:24;;;;;;;15.30;8.80;;;20.30;99.90;;;;;;5074567;28;20143;-75
2021/09/14 08:00:49;;;;;;;12.82;8.70;;;20.30;99.90;;;;;;5073297;28;20501;-75
2021/09/14 08:03:15;;;;;;;16.63;9.30;;;20.40;99.90;;;;;;5073182;28;20040;-74
2021/09/14 08:05:41;;;;;;;16.15;9.65;;;20.60;99.90;;;;;;5074486;28;20470;-79
2021/09/14 08:08:09;;;;;;;17.48;9.85;;;21.00;99.90;;;;;;5072561;28;20147;-77
2021/09/14 08:10:35;;;;;;;17.65;10.23;;;21.10;99.90;;;;;;5073729;28;20028;-77
2021/09/14 08:13:02;;;;;;;18.00;10.07;;;21.30;99.90;;;;;;5074619;28;20487;-86
2021/09/14 08:15:28;;;;;;;16.48;11.02;;;21.30;99.90;;;;;;5066975;28;20371;-80
2021/09/14 08:17:54;;;;;;;18.50;10.00;;;21.30;99.90;;;;;;5074274;28;20024;-74
2021/09/14 08:20:19;;;;;;;18.88;11.05;;;21.40;99.90;;;;;;5068901;28;20021;-85
2021/09/14 08:22:45;;;;;;;19.23;10.70;;;21.30;99.90;;;;;;5064344;28;20078;-74
2021/09/14 08:25:11;;;;;;;19.17;11.50;;;21.40;99.90;;;;;;5072104;28;20032;-81
2021/09/14 08:27:37;;;;;;;15.63;10.35;;;21.40;99.90;;;;;;5074091;28;20039;-79
2021/09/14 08:30:06;;;;;;;14.13;10.05;;;21.50;99.90;;;;;;5061658;28;20024;-73
2021/09/14 08:32:32;;;;;;;17.67;11.23;;;21.60;99.90;;;;;;5054618;28;20468;-74
2021/09/14 08:34:57;;;;;;;19.38;11.18;;;21.70;99.90;;;;;;5054936;28;20023;-73
2021/09/14 08:37:23;;;;;;;18.17;9.45;;;21.70;99.90;;;;;;5054125;28;20037;-75
2021/09/14 08:39:48;;;;;;;15.05;10.50;;;21.70;99.90;;;;;;5054673;28;20052;-73
2021/09/14 08:42:14;;;;;;;19.58;10.57;;;21.70;99.90;;;;;;5054071;28;20029;-72
2021/09/14 08:44:42;;;;;;;24.65;10.98;;;21.70;99.90;;;;;;5058986;28;20024;-75
2021/09/14 08:47:08;;;;;;;17.70;11.35;;;21.70;99.90;;;;;;5062194;28;20016;-80
2021/09/14 08:49:35;;;;;;;18.77;11.02;;;21.60;99.90;;;;;;5074035;28;20051;-76
2021/09/14 08:52:00;;;;;;;17.30;10.65;;;21.70;99.90;;;;;;5062509;28;20503;-74
2021/09/14 08:54:26;;;;;;;17.33;10.50;;;21.80;99.90;;;;;;5070657;28;20055;-82
2021/09/14 08:56:52;;;;;;;21.05;10.90;;;21.90;99.90;;;;;;5073502;28;20475;-78
2021/09/14 08:59:29;;;;;;;16.90;10.38;;;22.00;99.90;;;;;;5073324;28;20099;-79
2021/09/14 09:02:05;;;;;;;18.52;8.90;;;22.20;99.90;;;;;;5073833;28;20081;-82
2021/09/14 09:04:32;;;;;;;14.45;8.77;;;23.20;99.20;;;;;;5068035;28;20024;-84
2021/09/14 09:06:59;;;;;;;15.80;8.85;;;24.10;96.70;;;;;;5073171;28;20032;-75
2021/09/14 09:09:26;;;;;;;18.92;8.10;;;24.10;95.40;;;;;;5053770;28;20025;-84
2021/09/14 09:12:01;;;;;;;14.75;7.43;;;23.80;95.10;;;;;;5052863;28;20025;-84
2021/09/14 09:14:45;;;;;;;16.45;8.07;;;23.50;95.70;;;;;;5072365;28;20563;-75
2021/09/14 09:17:18;;;;;;;14.90;7.50;;;23.20;97.50;;;;;;5072015;28;20017;-82
2021/09/14 09:19:53;;;;;;;16.13;8.82;;;23.00;97.50;;;;;;5053690;28;20040;-80
2021/09/14 09:22:22;;;;;;;17.40;9.45;;;22.90;98.00;;;;;;5053168;28;20399;-80
2021/09/14 09:24:51;;;;;;;22.00;8.48;;;22.90;99.20;;;;;;5053610;28;20150;-83
2021/09/14 09:27:28;;;;;;;14.27;7.50;;;23.20;99.90;;;;;;5052740;28;20025;-83
2021/09/14 09:30:05;;;;;;;16.92;7.57;;;23.60;96.60;;;;;;5053482;28;20029;-79
2021/09/14 09:32:51;;;;;;;18.00;7.72;;;23.50;97.10;;;;;;5059605;28;20020;-81
2021/09/14 09:35:27;;;;;;;18.02;8.02;;;23.40;96.40;;;;;;5073430;28;20041;-78
2021/09/14 09:37:54;;;;;;;13.40;7.45;;;23.20;97.00;;;;;;5072941;28;20031;-80
2021/09/14 09:40:30;;;;;;;15.95;7.47;;;23.10;97.10;;;;;;5073054;28;20017;-82
2021/09/14 09:42:57;;;;;;;16.92;7.57;;;23.10;96.90;;;;;;5066332;28;20403;-74
2021/09/14 09:45:23;;;;;;;15.30;8.68;;;23.10;97.20;;;;;;5052644;28;20029;-80
2021/09/14 09:47:48;;;;;;;11.90;7.07;;;23.20;96.70;;;;;;5060376;28;20039;-80
2021/09/14 09:50:15;;;;;;;13.30;7.25;;;23.10;95.90;;;;;;5073594;28;20032;-79
2021/09/14 09:52:44;;;;;;;11.82;7.20;;;23.10;97.20;;;;;;5069953;28;20386;-80
2021/09/14 09:55:11;;;;;;;10.52;6.13;;;23.10;97.60;;;;;;5061177;28;20017;-80
2021/09/14 09:57:37;;;;;;;11.23;6.55;;;23.10;97.10;;;;;;5073120;28;20560;-82
2021/09/14 10:00:09;;;;;;;12.63;6.60;;;23.10;96.50;;;;;;5073338;28;20021;-77
2021/09/14 10:02:40;;;;;;;14.43;6.47;;;23.10;96.20;;;;;;5072805;28;20024;-79
2021/09/14 10:05:09;;;;;;;11.98;6.22;;;23.10;96.20;;;;;;5064634;28;20029;-79
2021/09/14 10:07:36;;;;;;;13.98;6.28;;;23.10;95.90;;;;;;5076742;28;20052;-79
2021/09/14 10:10:04;;;;;;;13.02;5.90;;;23.10;96.20;;;;;;5068330;28;20055;-77
2021/09/14 10:12:34;;;;;;;12.02;6.65;;;23.10;95.50;;;;;;5056629;28;20017;-77
2021/09/14 10:15:01;;;;;;;;;;;23.10;95.70;;;;;;5057577;28;20494;-77
2021/09/14 10:17:29;;;;;;;14.73;7.93;;;23.10;96.10;;;;;;5056824;28;20370;-79
2021/09/14 10:19:55;;;;;;;12.85;6.30;;;23.10;95.80;;;;;;5056770;28;20395;-80
2021/09/14 10:22:25;;;;;;;16.70;6.30;;;23.10;96.70;;;;;;5065845;28;20025;-78
2021/09/14 10:24:56;;;;;;;11.45;5.50;;;23.10;95.30;;;;;;5076285;28;20077;-78
2021/09/14 10:27:21;;;;;;;13.10;5.80;;;23.10;95.00;;;;;;5076674;28;20034;-80
2021/09/14 10:29:57;;;;;;;12.65;5.82;;;23.10;95.70;;;;;;5073592;28;20028;-79
2021/09/14 10:32:22;;;;;;;11.93;5.95;;;23.10;95.20;;;;;;5056592;28;20044;-75
2021/09/14 10:34:53;;;;;;;10.88;5.32;;;23.00;95.30;;;;;;5056269;28;20100;-77
2021/09/14 10:37:18;;;;;;;11.88;5.47;;;23.00;95.00;;;;;;5056515;28;20017;-75
2021/09/14 10:39:45;;;;;;;10.27;4.95;;;23.10;94.70;;;;;;5056474;28;20083;-76
2021/09/14 10:42:23;;;;;;;10.32;5.93;;;23.10;94.70;;;;;;5056151;28;20017;-75
2021/09/14 10:44:51;;;;;;;11.60;5.60;;;23.10;94.60;;;;;;5056379;28;20033;-75
2021/09/14 10:47:19;;;;;;;10.20;5.35;;;23.10;94.50;;;;;;5056036;28;20028;-77
2021/09/14 10:49:46;;;;;;;9.63;5.18;;;23.10;94.80;;;;;;5056194;28;20382;-74
2021/09/14 10:52:14;;;;;;;11.77;5.45;;;23.20;95.00;;;;;;5056188;28;20475;-77
2021/09/14 10:54:48;;;;;;;8.80;4.65;;;23.30;95.00;;;;;;5055880;28;20040;-76
2021/09/14 10:57:22;;;;;;;11.05;4.88;;;23.40;94.40;;;;;;5055829;28;20491;-76
2021/09/14 10:59:49;;;;;;;10.45;5.45;;;23.50;93.80;;;;;;5055816;28;20020;-76
2021/09/14 11:02:15;;;;;;;11.68;5.57;;;23.40;93.80;;;;;;5056343;28;20460;-75
2021/09/14 11:04:42;;;;;;;9.98;5.10;;;23.50;94.50;;;;;;5055693;28;20028;-76
2021/09/14 11:07:13;;;;;;;10.82;5.00;;;23.50;93.80;;;;;;5055379;28;20540;-74
2021/09/14 11:09:40;;;;;;;14.05;5.68;;;23.50;94.10;;;;;;5055575;28;20025;-75
2021/09/14 11:12:17;;;;;;;8.55;4.75;;;23.60;94.20;;;;;;5055620;28;20017;-75
2021/09/14 11:14:43;;;;;;;9.57;4.93;;;23.60;93.10;;;;;;5054742;28;20040;-75
2021/09/14 11:17:09;;;;;;;12.60;5.13;;;23.80;92.90;;;;;;5055405;28;20538;-77
2021/09/14 11:19:35;;;;;;;9.93;5.45;;;24.00;92.90;;;;;;5055439;28;20052;-76
2021/09/14 11:22:00;;;;;;;12.60;5.18;;;24.10;91.70;;;;;;5055372;28;20100;-75
2021/09/14 11:24:26;;;;;;;10.43;5.05;;;24.00;92.40;;;;;;5055303;28;20144;-74
2021/09/14 11:26:54;;;;;;;11.23;5.30;;;24.00;92.30;;;;;;5055267;28;20489;-75
2021/09/14 11:29:20;;;;;;;10.30;4.95;;;23.90;93.10;;;;;;5055195;28;20053;-77
2021/09/14 11:31:46;;;;;;;11.15;4.85;;;23.90;93.10;;;;;;5055693;28;20060;-75
2021/09/14 11:34:12;;;;;;;9.75;4.40;;;24.00;92.50;;;;;;5055154;28;20021;-75
2021/09/14 11:36:37;;;;;;;9.63;4.22;;;24.10;92.10;;;;;;5055358;28;20075;-77
2021/09/14 11:39:06;;;;;;;9.82;4.97;;;24.10;91.40;;;;;;5055079;28;20017;-76
2021/09/14 11:41:38;;;;;;;12.75;4.60;;;24.20;91.80;;;;;;5055517;28;20021;-76
2021/09/14 11:44:06;;;;;;;12.32;4.78;;;24.40;91.90;;;;;;5054995;28;20440;-74
2021/09/14 11:46:32;;;;;;;10.20;4.20;;;24.40;90.80;;;;;;5055187;28;20025;-77
2021/09/14 11:49:00;;;;;;;8.13;4.22;;;24.50;90.40;;;;;;5054913;28;20032;-74
2021/09/14 11:51:40;;;;;;;6.63;4.10;;;24.50;90.10;;;;;;5053463;28;20402;-76
2021/09/14 11:54:13;;;;;;;8.43;4.13;;;24.40;89.90;;;;;;5054729;28;20082;-75
2021/09/14 11:56:38;;;;;;;10.43;4.03;;;24.30;90.10;;;;;;5054696;28;20032;-76
2021/09/14 11:59:17;;;;;;;9.50;3.90;;;24.30;89.80;;;;;;5054881;28;20025;-75
2021/09/14 12:01:44;;;;;;;8.23;3.67;;;24.40;90.10;;;;;;5055167;28;20021;-75
2021/09/14 12:04:17;;;;;;;9.35;4.30;;;24.40;89.00;;;;;;5054579;28;20028;-75
2021/09/14 12:06:50;;;;;;;8.15;3.92;;;24.30;90.40;;;;;;5054829;28;20104;-76
2021/09/14 12:09:18;;;;;;;6.45;3.58;;;24.30;90.70;;;;;;5054471;28;20138;-75
2021/09/14 12:11:44;;;;;;;7.35;4.10;;;24.40;90.60;;;;;;5054443;28;20059;-76
2021/09/14 12:14:11;;;;;;;7.38;4.28;;;24.50;89.50;;;;;;5054640;28;20020;-76
2021/09/14 12:16:42;;;;;;;6.80;3.83;;;24.60;89.60;;;;;;5054319;28;20044;-76
2021/09/14 12:19:09;;;;;;;7.57;4.40;;;24.60;90.30;;;;;;5054600;28;20017;-77
2021/09/14 12:21:35;;;;;;;8.55;4.00;;;24.70;89.30;;;;;;5054207;28;20438;-76
2021/09/14 12:24:01;;;;;;;10.18;5.15;;;24.70;89.20;;;;;;5052899;28;20021;-75
2021/09/14 12:26:41;;;;;;;7.85;4.10;;;24.60;89.60;;;;;;5054209;28;20032;-74
2021/09/14 12:29:11;;;;;;;7.13;3.90;;;24.50;88.90;;;;;;5054433;28;20021;-76
2021/09/14 12:31:37;;;;;;;9.57;4.10;;;24.50;89.80;;;;;;5054236;28;20116;-76
2021/09/14 12:34:03;;;;;;;12.18;4.20;;;24.70;89.00;;;;;;5054032;28;20013;-75
2021/09/14 12:36:29;;;;;;;10.05;3.42;;;24.80;87.60;;;;;;5054254;28;20083;-75
2021/09/14 12:38:55;;;;;;;7.93;3.85;;;24.90;87.30;;;;;;5054225;28;20383;-76
2021/09/14 12:41:21;;;;;;;9.82;3.60;;;24.90;87.10;;;;;;5053861;28;20029;-75
2021/09/14 12:43:48;;;;;;;7.07;4.03;;;24.90;86.40;;;;;;5053811;28;20032;-76
2021/09/14 12:46:15;;;;;;;11.05;3.92;;;25.00;85.70;;;;;;5053799;28;20025;-76
2021/09/14 12:48:41;;;;;;;6.82;3.72;;;25.00;85.10;;;;;;5054000;28;20028;-76
2021/09/14 12:51:07;;;;;;;8.20;3.75;;;25.00;85.80;;;;;;5053905;28;20039;-76
2021/09/14 12:53:33;;;;;;;7.85;3.90;;;25.00;84.60;;;;;;5053662;28;20017;-76
2021/09/14 12:55:59;;;;;;;9.02;3.45;;;24.80;85.50;;;;;;5054127;28;20106;-75
2021/09/14 12:58:25;;;;;;;11.02;4.28;;;24.90;86.00;;;;;;5053506;28;20096;-78
2021/09/14 13:00:50;;;;;;;6.45;2.65;;;25.00;85.40;;;;;;5053798;28;20025;-77
2021/09/14 13:03:16;;;;;;;9.35;3.40;;;24.90;84.80;;;;;;5053484;28;20056;-76
2021/09/14 13:05:42;;;;;;;7.50;3.13;;;24.90;85.10;;;;;;5053447;28;20016;-75
2021/09/14 13:08:08;;;;;;;7.32;3.13;;;25.00;84.10;;;;;;5053224;28;20049;-76
2021/09/14 13:10:34;;;;;;;6.72;3.15;;;25.00;83.00;;;;;;5053297;28;20067;-76
2021/09/14 13:18:30;;;;;;;6.65;3.78;;;24.90;84.30;;;;;;5053830;28;20023;-75
2021/09/14 13:20:56;;;;;;;8.85;3.75;;;24.90;85.30;;;;;;5053230;28;20107;-76
2021/09/14 13:23:22;;;;;;;10.40;3.80;;;24.80;85.30;;;;;;5053203;28;20024;-77
2021/09/14 13:25:48;;;;;;;5.63;3.25;;;24.80;85.60;;;;;;5053744;28;20039;-75
2021/09/14 13:28:14;;;;;;;5.93;3.28;;;24.70;86.90;;;;;;5053432;28;20021;-75
2021/09/14 13:30:40;;;;;;;9.32;3.72;;;24.70;86.50;;;;;;5053316;28;20455;-76
2021/09/14 13:33:05;;;;;;;6.22;3.55;;;24.60;86.40;;;;;;5053336;28;20032;-75
2021/09/14 13:35:32;;;;;;;8.95;4.32;;;24.60;86.60;;;;;;5053032;28;20032;-78
2021/09/14 13:37:58;;;;;;;5.55;3.40;;;24.60;86.20;;;;;;5052759;28;20434;-77
2021/09/14 13:40:23;;;;;;;8.25;3.80;;;24.60;85.20;;;;;;5053248;28;20029;-75
2021/09/14 13:42:55;;;;;;;7.07;3.30;;;24.60;86.20;;;;;;5053231;28;20025;-75
2021/09/14 13:48:06;;;;;;;8.85;3.67;;;24.30;87.10;;;;;;5053252;28;20082;-75